Time;durP1;ratioP1;P1;durP2;ratioP2;P2;SDS_P1;SDS_P2;PMS_P1;PMS_P2;Temp;Humidity;BMP_temperature;BMP_pressure;BME280_temperature;BME280_humidity;BME280_pressure;Samples;Min_cycle;Max_cycle;Signal;HPM_P1;HPM_P2
2022/01/14 00:02:03;;;;;;;218.50;28.40;;;;;;;1.65;100.00;103793.16;4980734;28;20539;-46
2022/01/14 00:04:28;;;;;;;245.57;29.73;;;;;;;1.67;100.00;103804.53;5008691;28;20486;-46
2022/01/14 00:06:55;;;;;;;343.02;30.02;;;;;;;1.67;100.00;103804.53;5019174;28;20025;-48
2022/01/14 00:09:20;;;;;;;257.63;30.45;;;;;;;1.65;100.00;103804.56;5019437;28;20072;-45
2022/01/14 00:11:51;;;;;;;301.20;31.00;;;;;;;1.64;100.00;103796.66;5018329;28;20025;-44
2022/01/14 00:16:45;;;;;;;277.83;30.10;;;;;;;1.55;100.00;103789.81;5019230;28;20459;-49
2022/01/14 00:19:11;;;;;;;310.00;32.53;;;;;;;1.54;100.00;103789.84;5019556;28;20116;-46
2022/01/14 00:21:38;;;;;;;271.88;24.58;;;;;;;1.49;100.00;103782.91;5019262;28;20025;-46
2022/01/14 00:24:08;;;;;;;262.98;31.30;;;;;;;1.49;100.00;103784.66;5019235;28;20246;-47
2022/01/14 00:32:09;;;;;;;157.05;25.05;;;;;;;1.47;100.00;103775.94;5023549;28;20052;-45
2022/01/14 00:34:35;;;;;;;185.55;26.85;;;;;;;1.43;100.00;103774.25;5020234;28;20025;-45
2022/01/14 00:37:01;;;;;;;203.88;27.25;;;;;;;1.44;100.00;103774.25;5001253;28;20132;-46
2022/01/14 00:39:26;;;;;;;161.82;26.88;;;;;;;1.42;100.00;103776.00;5000422;28;20471;-47
2022/01/14 00:41:52;;;;;;;151.32;27.75;;;;;;;1.44;100.00;103775.97;5000239;28;20037;-49
2022/01/14 00:44:18;;;;;;;168.02;27.65;;;;;;;1.43;100.00;103767.22;5002522;28;20029;-47
2022/01/14 00:46:45;;;;;;;143.90;25.48;;;;;;;1.43;100.00;103755.84;5002434;28;20026;-45
2022/01/14 00:49:11;;;;;;;132.23;25.35;;;;;;;1.43;100.00;103769.84;5002493;28;20041;-45
2022/01/14 00:51:36;;;;;;;159.32;26.13;;;;;;;1.43;100.00;103756.69;5002246;28;20026;-45
2022/01/14 00:54:04;;;;;;;260.20;30.27;;;;;;;1.43;100.00;103756.69;5001892;28;20403;-47
2022/01/14 00:56:45;;;;;;;173.13;25.70;;;;;;;1.42;100.00;103746.19;5000782;28;20034;-44
2022/01/14 00:59:14;;;;;;;198.38;24.60;;;;;;;1.41;100.00;103741.78;5002182;28;20416;-44
2022/01/14 01:01:51;;;;;;;194.10;26.17;;;;;;;1.41;100.00;103749.69;5001908;28;20520;-46
2022/01/14 01:04:19;;;;;;;180.98;26.67;;;;;;;1.40;100.00;103738.31;5002537;28;20037;-46
2022/01/14 01:06:49;;;;;;;144.68;25.92;;;;;;;1.41;100.00;103737.41;5001931;28;20117;-47
2022/01/14 01:09:16;;;;;;;198.45;26.58;;;;;;;1.41;100.00;103720.72;5002073;28;20025;-47
2022/01/14 01:11:51;;;;;;;162.15;24.80;;;;;;;1.41;100.00;103726.88;5000784;28;20048;-47
2022/01/14 01:14:21;;;;;;;179.43;26.60;;;;;;;1.39;100.00;103720.78;5002480;28;20369;-44
2022/01/14 01:16:47;;;;;;;188.02;28.98;;;;;;;1.39;100.00;103712.88;5001550;28;20025;-47
2022/01/14 01:19:12;;;;;;;185.02;27.15;;;;;;;1.37;100.00;103717.28;5002191;28;20026;-49
2022/01/14 01:21:38;;;;;;;177.15;25.90;;;;;;;1.41;100.00;103724.25;5001463;28;20025;-48
2022/01/14 01:24:04;;;;;;;179.60;27.73;;;;;;;1.42;100.00;103710.16;5001575;28;20069;-46
2022/01/14 01:26:34;;;;;;;229.48;26.80;;;;;;;1.43;100.00;103714.56;5000325;28;20217;-46
2022/01/14 01:29:06;;;;;;;321.70;28.70;;;;;;;1.43;100.00;103717.19;5001502;28;20080;-46
2022/01/14 01:31:38;;;;;;;257.52;28.13;;;;;;;1.43;100.00;103724.22;5001506;28;20437;-48
2022/01/14 01:34:09;;;;;;;200.38;28.55;;;;;;;1.43;100.00;103722.44;5001902;28;20040;-44
2022/01/14 01:36:35;;;;;;;287.23;26.98;;;;;;;1.44;100.00;103728.56;5001825;28;20033;-46
2022/01/14 01:39:01;;;;;;;316.98;28.83;;;;;;;1.38;100.00;103731.34;5001505;28;20026;-47
2022/01/14 01:41:27;;;;;;;321.30;28.35;;;;;;;1.37;100.00;103729.59;4994717;28;20095;-46
2022/01/14 01:43:54;;;;;;;313.95;26.83;;;;;;;1.32;100.00;103731.47;5002335;28;20516;-47
2022/01/14 01:46:21;;;;;;;243.07;27.50;;;;;;;1.31;100.00;103730.59;5001950;28;20088;-46
2022/01/14 01:48:47;;;;;;;237.60;27.65;;;;;;;1.29;100.00;103727.09;5001225;28;20029;-48
2022/01/14 01:51:12;;;;;;;291.13;31.08;;;;;;;1.26;100.00;103724.56;5001790;28;20189;-44
2022/01/14 01:53:38;;;;;;;233.43;27.55;;;;;;;1.26;100.00;103722.78;5000891;28;20025;-46
2022/01/14 01:56:03;;;;;;;245.25;29.33;;;;;;;1.26;100.00;103727.19;5000329;28;20105;-44
2022/01/14 01:58:29;;;;;;;297.65;34.38;;;;;;;1.26;100.00;103728.03;5001363;28;20029;-46
2022/01/14 02:00:54;;;;;;;250.43;34.85;;;;;;;1.26;100.00;103728.03;5001476;28;20485;-47
2022/01/14 02:03:20;;;;;;;240.27;28.63;;;;;;;1.25;100.00;103720.19;5001752;28;20057;-45
2022/01/14 02:05:46;;;;;;;181.00;27.50;;;;;;;1.25;100.00;103715.75;5000958;28;20111;-45
2022/01/14 02:08:12;;;;;;;193.63;25.70;;;;;;;1.27;100.00;103721.91;5001282;28;20049;-46
2022/01/14 02:10:38;;;;;;;217.57;26.90;;;;;;;1.29;100.00;103721.84;4999682;28;20508;-44
2022/01/14 02:13:04;;;;;;;190.48;27.23;;;;;;;1.29;100.00;103708.66;5001319;28;20388;-46
2022/01/14 02:18:28;;;;;;;209.55;27.58;;;;;;;1.32;100.00;103707.75;5001488;28;20164;-45
2022/01/14 02:23:42;;;;;;;272.77;31.13;;;;;;;1.26;100.00;103698.22;5000625;28;20123;-49
2022/01/14 02:26:07;;;;;;;208.65;27.75;;;;;;;1.25;100.00;103701.75;4999829;28;20036;-48
2022/01/14 02:28:33;;;;;;;188.88;27.42;;;;;;;1.23;100.00;103708.81;5000347;28;20041;-46
2022/01/14 02:30:58;;;;;;;283.08;33.25;;;;;;;1.17;100.00;103695.75;5000756;28;20029;-44
2022/01/14 02:33:24;;;;;;;198.32;27.70;;;;;;;1.21;100.00;103700.09;5000494;28;20204;-44
2022/01/14 02:35:51;;;;;;;178.65;25.85;;;;;;;1.23;100.00;103695.66;5001210;28;20026;-47
2022/01/14 02:38:18;;;;;;;224.70;28.55;;;;;;;1.21;100.00;103700.94;5001135;28;20622;-47
2022/01/14 02:40:44;;;;;;;183.95;26.20;;;;;;;1.18;100.00;103695.72;4999305;28;20026;-46
2022/01/14 02:43:13;;;;;;;224.82;26.30;;;;;;;1.20;100.00;103693.06;5000022;28;20026;-46
2022/01/14 02:45:40;;;;;;;186.32;26.45;;;;;;;1.19;100.00;103699.22;5000080;28;20691;-47
2022/01/14 02:48:06;;;;;;;207.40;25.70;;;;;;;1.15;100.00;103698.41;5000598;28;20022;-45
2022/01/14 02:50:39;;;;;;;182.18;25.60;;;;;;;1.10;100.00;103692.38;5000098;28;20377;-44
2022/01/14 02:53:23;;;;;;;191.50;24.48;;;;;;;1.10;100.00;103690.63;4999788;28;20030;-44
2022/01/14 02:55:49;;;;;;;123.20;22.80;;;;;;;1.09;100.00;103688.88;4999464;28;20091;-46
2022/01/14 02:58:14;;;;;;;136.63;23.83;;;;;;;1.12;100.00;103685.31;5000025;28;20427;-43
2022/01/14 03:00:40;;;;;;;145.13;23.63;;;;;;;1.14;100.00;103688.81;5000013;28;20034;-44
2022/01/14 03:03:06;;;;;;;146.23;25.40;;;;;;;1.14;100.00;103682.66;5000467;28;20030;-45
2022/01/14 03:05:31;;;;;;;112.57;24.33;;;;;;;1.16;100.00;103691.41;4999777;28;20022;-44
2022/01/14 03:07:57;;;;;;;136.80;23.95;;;;;;;1.16;100.00;103699.31;5000180;28;20030;-45
2022/01/14 03:10:22;;;;;;;169.90;24.30;;;;;;;1.16;100.00;103694.03;4999427;28;20429;-46
2022/01/14 03:12:48;;;;;;;174.43;25.90;;;;;;;1.14;100.00;103690.53;4999509;28;20088;-46
2022/01/14 03:15:15;;;;;;;163.10;24.13;;;;;;;1.17;100.00;103695.75;4999966;28;20492;-44
2022/01/14 03:17:42;;;;;;;160.00;26.85;;;;;;;1.18;100.00;103694.88;4999716;28;20083;-45
2022/01/14 03:20:10;;;;;;;168.98;24.73;;;;;;;1.20;100.00;103690.44;5000273;28;20125;-47
2022/01/14 03:22:37;;;;;;;166.88;23.05;;;;;;;1.18;100.00;103685.19;4980302;28;20064;-47
2022/01/14 03:27:51;;;;;;;197.68;25.95;;;;;;;1.15;100.00;103680.00;4979689;28;20064;-44
2022/01/14 03:30:16;;;;;;;169.07;21.98;;;;;;;1.17;100.00;103679.97;4980325;28;20101;-44
2022/01/14 03:32:42;;;;;;;179.18;24.35;;;;;;;1.15;100.00;103681.75;4980055;28;20018;-43
2022/01/14 03:35:09;;;;;;;202.52;24.20;;;;;;;1.11;100.00;103689.72;4980322;28;20030;-45
2022/01/14 03:37:34;;;;;;;178.70;23.70;;;;;;;1.13;100.00;103679.16;4980345;28;20047;-45
2022/01/14 03:39:59;;;;;;;209.57;24.27;;;;;;;1.13;100.00;103686.19;4980620;28;20031;-45
2022/01/14 03:42:25;;;;;;;137.45;22.45;;;;;;;1.14;100.00;103682.66;4978270;28;20026;-46
2022/01/14 03:44:50;;;;;;;236.25;24.13;;;;;;;1.16;100.00;103680.88;4980598;28;20030;-45
2022/01/14 03:47:15;;;;;;;200.13;21.90;;;;;;;1.15;100.00;103672.09;4980204;28;20462;-44
2022/01/14 03:49:41;;;;;;;161.35;21.58;;;;;;;1.16;100.00;103678.25;4979864;28;20034;-44
2022/01/14 03:52:06;;;;;;;300.00;25.52;;;;;;;1.13;100.00;103689.69;4980596;28;20011;-45
2022/01/14 03:54:32;;;;;;;228.55;24.23;;;;;;;1.07;100.00;103672.25;4978983;28;20112;-43
2022/01/14 03:56:57;;;;;;;263.65;25.85;;;;;;;1.05;100.00;103678.44;4993060;28;20021;-44
2022/01/14 03:59:22;;;;;;;179.55;21.25;;;;;;;1.02;100.00;103674.09;4980043;28;20154;-46
2022/01/14 04:01:48;;;;;;;246.32;21.65;;;;;;;1.03;100.00;103660.03;4979633;28;20046;-49
2022/01/14 04:04:13;;;;;;;243.20;21.75;;;;;;;1.00;100.00;103670.66;4983119;28;20542;-45
2022/01/14 04:06:38;;;;;;;305.75;24.02;;;;;;;0.96;100.00;103676.84;4983358;28;20406;-47
2022/01/14 04:09:04;;;;;;;213.85;21.83;;;;;;;0.97;100.00;103660.16;4983240;28;20697;-46
2022/01/14 04:11:30;;;;;;;192.95;21.08;;;;;;;0.93;100.00;103669.00;4998455;28;20033;-46
2022/01/14 04:14:06;;;;;;;164.82;20.25;;;;;;;0.96;100.00;103662.84;5003071;28;20026;-46
2022/01/14 04:16:32;;;;;;;222.10;22.13;;;;;;;0.99;100.00;103660.16;5002927;28;20057;-46
2022/01/14 04:18:57;;;;;;;284.95;24.20;;;;;;;0.98;100.00;103661.03;5002790;28;20076;-45
2022/01/14 04:21:22;;;;;;;240.88;22.52;;;;;;;0.98;100.00;103661.88;5003396;28;20045;-44
2022/01/14 04:23:47;;;;;;;235.35;21.23;;;;;;;0.94;100.00;103662.84;5002312;28;20030;-48
2022/01/14 04:26:14;;;;;;;249.68;23.52;;;;;;;0.89;100.00;103657.66;5001146;28;20033;-44
2022/01/14 04:28:39;;;;;;;192.23;22.20;;;;;;;0.92;100.00;103651.50;5001665;28;20052;-44
2022/01/14 04:31:07;;;;;;;266.02;25.80;;;;;;;0.91;100.00;103662.91;5003085;28;20034;-45
2022/01/14 04:33:34;;;;;;;205.55;22.65;;;;;;;0.92;100.00;103659.41;5002533;28;20034;-46
2022/01/14 04:36:00;;;;;;;158.75;21.50;;;;;;;0.92;100.00;103659.41;5002715;28;20026;-46
2022/01/14 04:38:27;;;;;;;209.10;21.92;;;;;;;0.91;100.00;103652.38;5002014;28;20039;-45
2022/01/14 04:40:53;;;;;;;166.43;20.65;;;;;;;0.93;100.00;103653.22;5001807;28;20258;-44
2022/01/14 04:43:20;;;;;;;173.52;21.95;;;;;;;0.93;100.00;103662.00;5002937;28;20367;-45
2022/01/14 04:48:24;;;;;;;145.55;20.67;;;;;;;0.96;100.00;103650.53;5002305;28;20088;-46
2022/01/14 04:50:53;;;;;;;199.52;21.83;;;;;;;0.88;100.00;103631.38;5002655;28;20141;-45
2022/01/14 04:53:20;;;;;;;200.98;22.42;;;;;;;0.91;100.00;103631.34;5002373;28;20021;-45
2022/01/14 04:55:46;;;;;;;175.20;20.52;;;;;;;0.93;100.00;103637.44;5001099;28;20022;-46
2022/01/14 04:58:11;;;;;;;189.02;20.85;;;;;;;0.93;100.00;103626.91;5002365;28;20388;-47
2022/01/14 05:00:38;;;;;;;276.00;26.15;;;;;;;0.88;100.00;103620.88;5002186;28;20041;-45
2022/01/14 05:03:04;;;;;;;176.60;19.65;;;;;;;0.87;100.00;103609.47;5002197;28;20586;-45
2022/01/14 05:05:33;;;;;;;205.88;21.73;;;;;;;0.86;100.00;103609.50;5002113;28;20342;-44
2022/01/14 05:07:59;;;;;;;175.75;21.25;;;;;;;0.85;100.00;103610.41;5001875;28;20026;-44
2022/01/14 05:12:50;;;;;;;170.50;21.67;;;;;;;0.84;100.00;103603.41;5001970;28;20393;-43
2022/01/14 05:15:17;;;;;;;167.40;21.10;;;;;;;0.84;100.00;103599.00;5001028;28;20147;-45
2022/01/14 05:17:42;;;;;;;164.23;22.27;;;;;;;0.81;100.00;103603.47;5001691;28;20037;-46
2022/01/14 05:20:09;;;;;;;152.43;21.50;;;;;;;0.79;100.00;103595.59;5001995;28;20531;-47
2022/01/14 05:22:35;;;;;;;167.93;21.58;;;;;;;0.80;100.00;103620.13;5001672;28;20488;-43
2022/01/14 05:25:00;;;;;;;145.80;20.38;;;;;;;0.80;100.00;103612.25;4999124;28;20029;-43
2022/01/14 05:27:25;;;;;;;147.10;20.90;;;;;;;0.79;100.00;103595.59;5000853;28;20715;-43
2022/01/14 05:29:51;;;;;;;151.45;20.60;;;;;;;0.82;100.00;103597.31;5001958;28;20037;-47
2022/01/14 05:32:16;;;;;;;162.82;20.35;;;;;;;0.82;100.00;103600.81;5001621;28;20044;-44
2022/01/14 05:34:43;;;;;;;140.60;21.48;;;;;;;0.80;100.00;103602.63;5001400;28;20278;-47
2022/01/14 05:37:09;;;;;;;129.93;21.02;;;;;;;0.83;100.00;103606.94;5001802;28;20374;-45
2022/01/14 05:39:35;;;;;;;141.30;21.40;;;;;;;0.80;100.00;103606.97;5015495;28;20026;-43
2022/01/14 05:42:01;;;;;;;153.15;20.08;;;;;;;0.77;100.00;103601.81;5000398;28;20191;-44
2022/01/14 05:44:28;;;;;;;168.63;22.95;;;;;;;0.76;100.00;103598.28;5001562;28;20022;-43
2022/01/14 05:46:54;;;;;;;157.05;22.08;;;;;;;0.75;100.00;103593.94;5001398;28;20021;-45
2022/01/14 05:49:21;;;;;;;118.13;20.00;;;;;;;0.72;100.00;103589.59;5001726;28;20052;-48
2022/01/14 05:51:47;;;;;;;158.13;20.80;;;;;;;0.71;100.00;103597.50;5001191;28;20346;-44
2022/01/14 05:54:13;;;;;;;164.18;22.05;;;;;;;0.68;100.00;103592.31;5000779;28;20032;-44
2022/01/14 05:56:39;;;;;;;162.20;21.60;;;;;;;0.64;100.00;103586.22;4988881;28;20022;-46
2022/01/14 05:59:04;;;;;;;163.52;21.77;;;;;;;0.64;100.00;103591.50;4981716;28;20041;-46
2022/01/14 06:01:33;;;;;;;141.77;21.10;;;;;;;0.62;100.00;103585.41;4989175;28;20025;-44
2022/01/14 06:04:00;;;;;;;151.15;23.63;;;;;;;0.65;100.00;103598.50;5000976;28;20425;-44
2022/01/14 06:06:25;;;;;;;134.50;20.50;;;;;;;0.66;100.00;103602.00;5000747;28;20033;-45
2022/01/14 06:08:51;;;;;;;171.98;22.55;;;;;;;0.64;100.00;103607.28;5001120;28;20484;-47
2022/01/14 06:11:16;;;;;;;101.18;21.02;;;;;;;0.65;100.00;103614.28;4999748;28;20445;-46
2022/01/14 06:13:42;;;;;;;142.48;21.30;;;;;;;0.67;100.00;103612.47;5000499;28;20125;-45
2022/01/14 06:16:07;;;;;;;140.05;21.27;;;;;;;0.67;100.00;103616.88;5001116;28;20045;-44
2022/01/14 06:18:32;;;;;;;136.60;21.17;;;;;;;0.68;100.00;103615.97;5000092;28;20030;-42
2022/01/14 06:20:58;;;;;;;118.40;20.55;;;;;;;0.71;100.00;103626.44;4999268;28;20045;-46
2022/01/14 06:23:23;;;;;;;145.30;20.38;;;;;;;0.73;100.00;103612.38;4995135;28;20083;-44
2022/01/14 06:25:48;;;;;;;167.75;23.50;;;;;;;0.72;100.00;103613.25;4989014;28;20496;-44
2022/01/14 06:28:14;;;;;;;181.70;21.42;;;;;;;0.68;100.00;103610.72;4988532;28;20054;-45
2022/01/14 06:30:39;;;;;;;211.40;21.90;;;;;;;0.65;100.00;103610.78;4987203;28;20114;-47
2022/01/14 06:33:04;;;;;;;127.95;20.55;;;;;;;0.63;100.00;103616.06;4985525;28;20021;-44
2022/01/14 06:35:30;;;;;;;159.20;20.80;;;;;;;0.61;100.00;103614.34;4988294;28;20466;-46
2022/01/14 06:37:57;;;;;;;128.23;20.05;;;;;;;0.62;100.00;103605.59;4993264;28;20030;-46
2022/01/14 06:40:23;;;;;;;176.57;20.38;;;;;;;0.61;100.00;103602.09;4991158;28;20444;-44
2022/01/14 06:42:50;;;;;;;119.03;18.70;;;;;;;0.61;100.00;103604.72;4990664;28;20076;-43
2022/01/14 06:45:15;;;;;;;146.73;21.25;;;;;;;0.60;100.00;103602.13;4990012;28;20018;-47
2022/01/14 06:47:41;;;;;;;133.50;20.05;;;;;;;0.60;100.00;103607.38;4989376;28;20695;-43
2022/01/14 06:50:06;;;;;;;186.13;20.13;;;;;;;0.55;100.00;103605.69;4992014;28;20034;-48
2022/01/14 06:52:31;;;;;;;151.23;20.50;;;;;;;0.54;100.00;103598.72;4978696;28;20122;-45
2022/01/14 06:54:58;;;;;;;165.55;20.52;;;;;;;0.52;100.00;103596.97;4978566;28;20037;-46
2022/01/14 06:57:24;;;;;;;173.85;19.10;;;;;;;0.49;100.00;103603.19;4998375;28;20095;-43
2022/01/14 06:59:49;;;;;;;143.13;19.90;;;;;;;0.48;100.00;103593.56;5000771;28;20037;-46
2022/01/14 07:02:15;;;;;;;177.40;19.55;;;;;;;0.49;100.00;103597.03;5000173;28;20028;-43
2022/01/14 07:04:40;;;;;;;130.85;18.17;;;;;;;0.46;100.00;103605.88;4994309;28;20052;-43
2022/01/14 07:07:05;;;;;;;149.38;19.00;;;;;;;0.46;100.00;103604.97;4987650;28;20029;-46
2022/01/14 07:09:31;;;;;;;152.70;20.02;;;;;;;0.48;100.00;103603.22;4988872;28;20432;-47
2022/01/14 07:11:59;;;;;;;176.68;21.88;;;;;;;0.49;100.00;103600.56;4987409;28;20026;-45
2022/01/14 07:14:25;;;;;;;137.02;19.40;;;;;;;0.48;100.00;103604.06;4987510;28;20038;-46
2022/01/14 07:16:51;;;;;;;177.68;19.60;;;;;;;0.50;100.00;103601.41;4980899;28;20387;-43
2022/01/14 07:19:19;;;;;;;180.85;21.20;;;;;;;0.46;100.00;103608.50;4996148;28;20042;-45
2022/01/14 07:21:44;;;;;;;204.47;21.17;;;;;;;0.45;100.00;103611.16;4999882;28;20373;-45
2022/01/14 07:24:12;;;;;;;236.35;22.00;;;;;;;0.42;100.00;103606.78;4999479;28;20040;-46
2022/01/14 07:26:38;;;;;;;125.10;19.98;;;;;;;0.41;100.00;103605.06;4988726;28;20436;-45
2022/01/14 07:29:03;;;;;;;219.30;21.85;;;;;;;0.41;100.00;103606.81;4989450;28;20046;-44
2022/01/14 07:31:28;;;;;;;197.43;21.00;;;;;;;0.38;100.00;103620.03;4995863;28;20042;-46
2022/01/14 07:33:54;;;;;;;115.45;19.63;;;;;;;0.38;100.00;103614.78;4996454;28;20054;-45
2022/01/14 07:36:19;;;;;;;127.45;19.13;;;;;;;0.36;100.00;103625.31;4999773;28;20033;-47
2022/01/14 07:38:44;;;;;;;167.25;19.08;;;;;;;0.34;100.00;103622.72;5001545;28;20038;-42
2022/01/14 07:41:09;;;;;;;129.27;18.15;;;;;;;0.35;100.00;103621.81;5002234;28;20099;-45
2022/01/14 07:43:35;;;;;;;133.98;17.95;;;;;;;0.32;100.00;103623.63;5000916;28;20040;-46
2022/01/14 07:46:02;;;;;;;202.05;20.05;;;;;;;0.30;100.00;103628.91;5003288;28;20460;-48
2022/01/14 07:48:28;;;;;;;158.95;18.42;;;;;;;0.32;100.00;103621.88;5003061;28;20044;-49
2022/01/14 07:50:53;;;;;;;184.55;20.45;;;;;;;0.33;100.00;103617.47;5003475;28;20540;-46
2022/01/14 07:53:18;;;;;;;223.15;20.20;;;;;;;0.32;100.00;103629.75;5003964;28;20037;-45
2022/01/14 07:55:44;;;;;;;151.52;18.25;;;;;;;0.31;100.00;103628.03;5001458;28;20353;-46
2022/01/14 07:58:10;;;;;;;140.60;19.92;;;;;;;0.33;100.00;103617.47;5002583;28;20029;-48
2022/01/14 08:00:37;;;;;;;154.13;18.23;;;;;;;0.31;100.00;103617.50;5002669;28;20056;-48
2022/01/14 08:03:02;;;;;;;172.23;18.35;;;;;;;0.28;100.00;103611.44;5002712;28;20033;-47
2022/01/14 08:05:28;;;;;;;162.35;20.48;;;;;;;0.26;100.00;103606.19;5002627;28;20033;-45
2022/01/14 08:07:56;;;;;;;167.55;19.58;;;;;;;0.29;100.00;103600.00;5002385;28;20074;-44
2022/01/14 08:10:21;;;;;;;223.45;22.08;;;;;;;0.27;100.00;103600.06;5002078;28;20026;-48
2022/01/14 08:12:47;;;;;;;192.70;19.38;;;;;;;0.25;100.00;103596.56;5000096;28;20033;-47
2022/01/14 08:15:13;;;;;;;151.98;19.20;;;;;;;0.24;100.00;103592.22;5003297;28;20029;-46
2022/01/14 08:17:38;;;;;;;155.98;19.88;;;;;;;0.24;100.00;103609.72;5002556;28;20037;-49
2022/01/14 08:20:05;;;;;;;184.38;19.90;;;;;;;0.22;100.00;103590.50;5002240;28;20017;-45
2022/01/14 08:22:31;;;;;;;216.55;22.17;;;;;;;0.17;100.00;103590.56;4993773;28;20026;-46
2022/01/14 08:24:57;;;;;;;111.53;19.48;;;;;;;0.23;100.00;103614.13;4991637;28;20038;-50
2022/01/14 08:27:23;;;;;;;150.70;17.58;;;;;;;0.24;100.00;103609.72;4992731;28;20052;-47
2022/01/14 08:29:50;;;;;;;150.23;19.30;;;;;;;0.23;100.00;103624.66;4995992;28;20077;-46
2022/01/14 08:32:15;;;;;;;133.95;18.95;;;;;;;0.23;100.00;103636.94;4992205;28;20029;-46
2022/01/14 08:34:41;;;;;;;146.18;19.38;;;;;;;0.25;100.00;103633.38;4991164;28;20250;-47
2022/01/14 08:37:06;;;;;;;185.57;20.90;;;;;;;0.26;100.00;103619.34;4993170;28;20037;-47
2022/01/14 08:39:31;;;;;;;148.60;20.40;;;;;;;0.29;100.00;103644.69;4990915;28;20409;-47
2022/01/14 08:41:58;;;;;;;184.70;21.00;;;;;;;0.38;100.00;103634.03;4992022;28;20025;-49
2022/01/14 08:44:24;;;;;;;145.00;19.23;;;;;;;0.39;100.00;103625.28;4991108;28;20057;-50
2022/01/14 08:46:50;;;;;;;121.25;19.77;;;;;;;0.43;100.00;103619.06;4983227;28;20384;-49
2022/01/14 08:49:16;;;;;;;144.30;20.80;;;;;;;0.46;100.00;103623.38;4991144;28;20527;-47
2022/01/14 08:51:41;;;;;;;247.10;22.30;;;;;;;0.45;100.00;103619.03;4991001;28;20021;-48
2022/01/14 08:54:08;;;;;;;163.93;20.75;;;;;;;0.47;100.00;103619.88;4992073;28;20040;-44
2022/01/14 08:56:34;;;;;;;112.80;20.35;;;;;;;0.50;100.00;103632.97;4988966;28;20100;-44
2022/01/14 08:59:00;;;;;;;109.25;20.02;;;;;;;0.55;100.00;103624.09;4991045;28;20377;-49
2022/01/14 09:01:26;;;;;;;177.13;22.38;;;;;;;0.62;100.00;103621.38;4991821;28;20032;-47
2022/01/14 09:03:51;;;;;;;178.35;20.92;;;;;;;0.66;100.00;103623.91;4991450;28;20424;-46
2022/01/14 09:06:17;;;;;;;131.63;21.40;;;;;;;0.64;100.00;103623.06;4992492;28;20052;-44
2022/01/14 09:08:42;;;;;;;134.60;20.35;;;;;;;0.64;100.00;103611.69;4991561;28;20100;-48
2022/01/14 09:11:08;;;;;;;160.35;21.00;;;;;;;0.66;100.00;103610.78;4990635;28;20025;-47
2022/01/14 09:13:34;;;;;;;134.32;20.58;;;;;;;0.69;100.00;103618.56;4991223;28;20481;-48
2022/01/14 09:15:59;;;;;;;219.35;22.85;;;;;;;0.71;100.00;103627.34;4993064;28;20049;-48
2022/01/14 09:18:25;;;;;;;173.18;21.95;;;;;;;0.72;100.00;103631.69;4990074;28;20033;-49
2022/01/14 09:20:50;;;;;;;180.40;23.75;;;;;;;0.72;100.00;103607.16;4995894;28;20018;-47
2022/01/14 09:23:23;;;;;;;161.07;23.42;;;;;;;0.72;100.00;103607.16;5000874;28;20136;-45
2022/01/14 09:25:48;;;;;;;143.10;23.23;;;;;;;0.78;100.00;103612.31;5000622;28;20022;-46
2022/01/14 09:28:14;;;;;;;131.85;21.48;;;;;;;0.86;100.00;103627.94;4991131;28;20531;-46
2022/01/14 09:30:39;;;;;;;216.82;23.92;;;;;;;0.88;100.00;103632.28;4981883;28;20058;-47
2022/01/14 09:33:04;;;;;;;209.57;23.00;;;;;;;0.88;100.00;103641.91;4982204;28;20026;-46
2022/01/14 09:35:30;;;;;;;190.82;22.73;;;;;;;0.86;100.00;103634.03;4980663;28;20049;-47
2022/01/14 09:37:55;;;;;;;150.68;23.27;;;;;;;0.86;100.00;103631.41;4981728;28;20046;-47
2022/01/14 09:40:20;;;;;;;128.43;22.25;;;;;;;0.87;100.00;103634.94;4980663;28;20416;-46
2022/01/14 09:42:47;;;;;;;172.32;22.58;;;;;;;0.84;100.00;103650.78;4980780;28;20371;-47
2022/01/14 09:45:12;;;;;;;126.50;21.35;;;;;;;0.87;100.00;103654.22;4981720;28;20031;-47
2022/01/14 09:47:39;;;;;;;151.88;21.98;;;;;;;0.92;100.00;103647.09;4980491;28;20468;-45
2022/01/14 09:50:05;;;;;;;161.50;22.67;;;;;;;0.96;100.00;103652.31;4982075;28;20452;-44
2022/01/14 09:52:30;;;;;;;139.50;23.13;;;;;;;1.01;100.00;103656.56;4981392;28;20485;-46
2022/01/14 09:54:56;;;;;;;170.90;23.88;;;;;;;1.00;100.00;103654.84;4980442;28;20261;-45
2022/01/14 09:57:21;;;;;;;134.23;22.85;;;;;;;1.04;100.00;103648.63;4985897;28;20465;-49
2022/01/14 09:59:47;;;;;;;127.82;23.30;;;;;;;1.02;100.00;103647.78;4998870;28;20045;-47
2022/01/14 10:02:34;;;;;;;150.50;23.40;;;;;;;1.08;100.00;103657.31;4999889;28;20018;-48
2022/01/14 10:05:01;;;;;;;169.15;24.27;;;;;;;1.11;100.00;103659.91;5001470;28;20056;-47
2022/01/14 10:07:27;;;;;;;141.30;24.10;;;;;;;1.14;100.00;103653.69;5000475;28;20492;-48
2022/01/14 10:09:58;;;;;;;150.73;23.73;;;;;;;1.18;100.00;103655.38;4995134;28;20044;-46
2022/01/14 10:12:25;;;;;;;200.32;23.90;;;;;;;1.14;100.00;103643.16;4985644;28;20030;-44
2022/01/14 10:14:56;;;;;;;165.02;26.13;;;;;;;1.13;100.00;103651.97;4981560;28;20025;-44
2022/01/14 10:17:22;;;;;;;142.10;25.65;;;;;;;1.11;100.00;103642.34;4981389;28;20026;-46
2022/01/14 10:19:48;;;;;;;134.15;24.23;;;;;;;1.15;100.00;103655.44;4979716;28;20378;-48
2022/01/14 10:22:28;;;;;;;163.55;25.73;;;;;;;1.16;100.00;103638.75;4981029;28;20034;-45
2022/01/14 10:25:08;;;;;;;144.15;26.30;;;;;;;1.20;100.00;103656.22;4982874;28;20084;-45
2022/01/14 10:27:39;;;;;;;116.43;25.65;;;;;;;1.23;100.00;103643.00;4985313;28;20089;-47
2022/01/14 10:30:13;;;;;;;140.32;25.83;;;;;;;1.26;100.00;103649.06;4981219;28;20374;-47
2022/01/14 10:32:40;;;;;;;107.25;25.95;;;;;;;1.32;100.00;103649.84;4980303;28;20014;-50
2022/01/14 10:35:11;;;;;;;167.77;28.08;;;;;;;1.34;100.00;103648.91;4981095;28;20029;-50
2022/01/14 10:37:37;;;;;;;122.63;24.80;;;;;;;1.37;100.00;103640.94;4978779;28;20468;-47
2022/01/14 10:40:13;;;;;;;86.22;26.40;;;;;;;1.39;100.00;103652.31;4988119;28;20100;-45
2022/01/14 10:42:40;;;;;;;111.57;28.95;;;;;;;1.41;100.00;103639.09;4988212;28;20033;-46
2022/01/14 10:45:25;;;;;;;89.75;25.40;;;;;;;1.52;100.00;103637.13;4991106;28;20500;-47
2022/01/14 10:48:08;;;;;;;89.95;25.27;;;;;;;1.62;100.00;103643.91;4988946;28;20027;-44
2022/01/14 10:50:41;;;;;;;95.65;25.88;;;;;;;1.65;100.00;103641.22;4990690;28;20500;-48
2022/01/14 10:53:10;;;;;;;85.25;27.45;;;;;;;1.67;100.00;103641.19;4997995;28;20026;-47
2022/01/14 10:56:00;;;;;;;79.28;26.63;;;;;;;1.71;100.00;103640.22;4989504;28;20123;-46
2022/01/14 10:58:29;;;;;;;100.97;28.20;;;;;;;1.79;100.00;103634.78;4980222;28;20091;-44
2022/01/14 11:00:59;;;;;;;91.82;28.80;;;;;;;1.79;100.00;103630.38;4989127;28;20056;-48
2022/01/14 11:03:35;;;;;;;107.10;31.00;;;;;;;1.85;100.00;103616.16;4990320;28;20030;-47
2022/01/14 11:06:26;;;;;;;109.15;30.83;;;;;;;1.94;100.00;103613.34;4990069;28;20022;-46
2022/01/14 11:08:55;;;;;;;112.80;33.03;;;;;;;1.97;100.00;103621.19;4988058;28;20117;-47
2022/01/14 11:11:20;;;;;;;102.78;31.77;;;;;;;2.04;100.00;103619.25;4989162;28;20395;-48
2022/01/14 11:13:46;;;;;;;107.03;30.48;;;;;;;2.05;100.00;103613.97;4989557;28;20017;-45
2022/01/14 11:16:12;;;;;;;95.22;30.23;;;;;;;2.05;100.00;103610.44;4988803;28;20105;-46
2022/01/14 11:18:38;;;;;;;110.03;32.17;;;;;;;2.02;100.00;103610.50;4987975;28;20014;-46
2022/01/14 11:23:48;;;;;;;101.68;31.02;;;;;;;1.99;100.00;103616.72;4991892;28;20467;-47
2022/01/14 11:26:17;;;;;;;93.03;29.17;;;;;;;1.99;100.00;103621.13;4998911;28;20033;-48